首页
METAR-TAF:

METAR-TAF

机场 :

巴塞尔-米卢斯-弗赖堡欧洲机场

巴塞尔-米卢斯-弗赖堡欧洲机场, 法国

纬度: 47-36N, 经度: 007-31E, 海拔: 270米

当前天气观测

该预报发布于28分钟前的08:00 UTC
风速4节,风向,在西转西北北转东北之间变化
温度 2°C
湿度 55%
气压 1025 hPa
能见度10公里或以上
1500米以下无云,无积雨云

METAR: LFSB 310800Z AUTO 35004KT 300V020 CAVOK 02/M06 Q1025 NOSIG

时间: 10:28 (08:28 UTC)

预报

该预报发布于3小时和28分钟前的05:00 UTC
预报有效从31日的 06点(UTC)到 01日的 06点(UTC)
风速5节,风向
能见度10公里或以上
1500米以下无云,无积雨云
短暂存在
从 31日的 11点(UTC)到 31日的 21点(UTC)
风速10节,风向

TAF: LFSB 310500Z 3106/0106 35005KT CAVOK TEMPO 3111/3121 10010KT

超过4000个机场的气象观测和天气预报(METAR&TAF报告)。

可查询的气象台以黄色和红色小点在地图上表示。

将鼠标移到小点上方,可查看气象台名称。

然后点击查看天气观测和预报。

如需切换地图:点击带黑十字的绿色按钮放大地图;点击带横线的绿色按钮缩小地图;或者点击绿色箭头查看邻近地区的地图。


METAR-TAF: